Time;durP1;ratioP1;P1;durP2;ratioP2;P2;SDS_P1;SDS_P2;PMS_P1;PMS_P2;Temp;Humidity;BMP_temperature;BMP_pressure;BME280_temperature;BME280_humidity;BME280_pressure;Samples;Min_cycle;Max_cycle;Signal;HPM_P1;HPM_P2
2021/10/07 00:00:18;;;;;;;6.50;5.10;;;8.10;88.70;;;;;;5073127;28;20262;-87
2021/10/07 00:02:44;;;;;;;8.07;5.57;;;8.10;89.20;;;;;;5073453;28;20178;-86
2021/10/07 00:05:11;;;;;;;7.47;6.10;;;8.20;89.30;;;;;;5074717;28;20171;-86
2021/10/07 00:07:37;;;;;;;10.53;6.27;;;8.10;89.40;;;;;;5073140;28;20187;-86
2021/10/07 00:10:04;;;;;;;35.27;7.53;;;7.90;89.40;;;;;;5073075;28;20175;-87
2021/10/07 00:12:30;;;;;;;15.30;5.63;;;7.80;89.80;;;;;;5072871;28;20179;-86
2021/10/07 00:14:56;;;;;;;8.67;6.10;;;7.80;90.10;;;;;;5072936;28;20199;-86
2021/10/07 00:17:22;;;;;;;6.27;5.33;;;7.90;90.10;;;;;;5074300;28;20198;-86
2021/10/07 00:19:47;;;;;;;51.93;6.50;;;7.90;90.10;;;;;;5072861;28;20191;-86
2021/10/07 00:22:13;;;;;;;57.40;8.77;;;7.80;90.10;;;;;;5074358;28;20599;-86
2021/10/07 00:24:39;;;;;;;6.20;4.70;;;7.80;90.20;;;;;;5072824;28;20224;-86
2021/10/07 00:27:04;;;;;;;4.77;4.30;;;7.70;90.40;;;;;;5074102;28;20183;-86
2021/10/07 00:29:45;;;;;;;6.97;4.53;;;7.80;90.50;;;;;;5073891;28;20190;-86
2021/10/07 00:32:15;;;;;;;4.40;3.83;;;7.80;90.40;;;;;;5073854;28;20182;-87
2021/10/07 00:39:50;;;;;;;3.50;3.20;;;7.80;90.10;;;;;;5073924;28;20194;-87
2021/10/07 00:42:16;;;;;;;3.90;3.50;;;7.90;90.20;;;;;;5072530;28;20172;-85
2021/10/07 00:44:44;;;;;;;3.50;3.20;;;7.80;90.20;;;;;;5073418;28;20229;-85
2021/10/07 00:47:11;;;;;;;4.53;3.83;;;7.80;89.90;;;;;;5072007;28;20409;-86
2021/10/07 00:49:40;;;;;;;5.23;3.63;;;7.80;89.70;;;;;;5073635;28;20206;-86
2021/10/07 00:52:14;;;;;;;4.43;3.57;;;7.80;89.50;;;;;;5072540;28;20182;-86
2021/10/07 00:54:41;;;;;;;5.03;4.53;;;7.70;88.90;;;;;;5072291;28;20244;-86
2021/10/07 00:57:09;;;;;;;4.70;4.30;;;7.60;88.70;;;;;;5072422;28;20178;-86
2021/10/07 00:59:35;;;;;;;4.63;4.10;;;7.60;88.50;;;;;;5072484;28;20634;-86
2021/10/07 01:02:08;;;;;;;3.90;3.50;;;7.60;88.40;;;;;;5073531;28;20172;-86
2021/10/07 01:04:35;;;;;;;4.17;3.73;;;7.60;88.10;;;;;;5073561;28;20156;-86
2021/10/07 01:07:05;;;;;;;4.00;3.40;;;7.60;88.00;;;;;;5072229;28;20175;-86
2021/10/07 01:09:32;;;;;;;3.87;3.53;;;7.60;87.90;;;;;;5072199;28;20202;-86
2021/10/07 01:11:58;;;;;;;6.03;3.20;;;7.60;87.70;;;;;;5072290;28;20229;-86
2021/10/07 01:14:56;;;;;;;3.13;2.93;;;7.50;87.20;;;;;;5072131;28;20199;-86
2021/10/07 01:17:28;;;;;;;4.30;3.90;;;7.50;87.20;;;;;;5072121;28;20167;-86
2021/10/07 01:19:55;;;;;;;7.10;5.80;;;7.50;87.30;;;;;;5073281;28;20678;-86
2021/10/07 01:22:23;;;;;;;89.93;7.73;;;7.50;87.60;;;;;;5072890;28;20202;-86
2021/10/07 01:24:49;;;;;;;6.27;5.53;;;7.40;88.20;;;;;;5078887;28;20171;-86
2021/10/07 01:27:17;;;;;;;5.50;5.00;;;7.40;88.70;;;;;;5079288;28;20609;-86
2021/10/07 01:29:43;;;;;;;5.10;4.30;;;7.40;88.70;;;;;;5078901;28;20234;-86
2021/10/07 01:32:09;;;;;;;6.30;4.50;;;7.40;88.90;;;;;;5080118;28;20203;-86
2021/10/07 01:34:35;;;;;;;5.07;4.47;;;7.40;89.30;;;;;;5079938;28;20195;-86
2021/10/07 01:37:02;;;;;;;5.53;4.93;;;7.30;89.60;;;;;;5079954;28;20163;-86
2021/10/07 01:39:28;;;;;;;6.37;5.43;;;7.30;90.20;;;;;;5078690;28;20283;-86
2021/10/07 01:41:54;;;;;;;9.00;5.47;;;7.30;90.50;;;;;;5079308;28;20229;-86
2021/10/07 01:44:23;;;;;;;8.43;6.17;;;7.20;90.80;;;;;;5080000;28;20172;-86
2021/10/07 01:46:49;;;;;;;7.30;5.53;;;7.20;91.00;;;;;;5078654;28;20177;-86
2021/10/07 01:49:15;;;;;;;10.03;6.07;;;7.30;91.50;;;;;;5079638;28;20194;-86
2021/10/07 01:51:41;;;;;;;8.93;5.63;;;7.30;91.50;;;;;;5079835;28;20669;-86
2021/10/07 01:54:07;;;;;;;11.53;5.90;;;7.30;91.60;;;;;;5078369;28;20203;-86
2021/10/07 01:56:34;;;;;;;8.87;6.37;;;7.30;91.60;;;;;;5079796;28;20216;-86
2021/10/07 01:59:00;;;;;;;9.23;6.07;;;7.20;91.70;;;;;;5079762;28;20215;-86
2021/10/07 02:01:26;;;;;;;6.03;5.13;;;7.20;91.80;;;;;;5078445;28;20224;-86
2021/10/07 02:03:52;;;;;;;7.00;4.53;;;7.20;91.80;;;;;;5078319;28;20176;-87
2021/10/07 02:06:18;;;;;;;8.17;4.80;;;7.20;91.80;;;;;;5079989;28;20183;-86
2021/10/07 02:08:44;;;;;;;5.23;4.10;;;7.20;91.80;;;;;;5078391;28;20784;-86
2021/10/07 02:11:10;;;;;;;4.87;4.37;;;7.20;91.80;;;;;;5079597;28;20220;-86
2021/10/07 02:13:36;;;;;;;5.13;4.33;;;7.20;91.60;;;;;;5078278;28;20289;-86
2021/10/07 02:16:02;;;;;;;7.37;4.37;;;7.10;91.50;;;;;;5078299;28;20229;-86
2021/10/07 02:18:28;;;;;;;5.57;3.93;;;7.10;91.40;;;;;;5079555;28;20198;-86
2021/10/07 02:20:54;;;;;;;5.20;4.07;;;7.20;91.40;;;;;;5078226;28;20167;-86
2021/10/07 02:23:20;;;;;;;3.83;3.40;;;7.20;91.40;;;;;;5079496;28;20674;-86
2021/10/07 02:25:46;;;;;;;6.07;4.20;;;7.10;91.30;;;;;;5078328;28;20175;-86
2021/10/07 02:28:13;;;;;;;3.97;3.50;;;7.10;91.20;;;;;;5078108;28;20197;-86
2021/10/07 02:30:40;;;;;;;3.93;2.90;;;7.10;91.10;;;;;;5079323;28;20254;-86
2021/10/07 02:33:06;;;;;;;3.67;3.10;;;7.10;90.90;;;;;;5078059;28;20175;-86
2021/10/07 02:35:32;;;;;;;3.63;3.20;;;7.00;90.80;;;;;;5075181;28;20195;-86
2021/10/07 02:37:58;;;;;;;4.83;3.63;;;7.00;90.70;;;;;;5074834;28;20700;-86
2021/10/07 02:40:24;;;;;;;4.10;3.70;;;6.90;90.00;;;;;;5076367;28;20171;-86
2021/10/07 02:42:49;;;;;;;3.80;3.40;;;6.90;89.80;;;;;;5076131;28;20175;-86
2021/10/07 02:45:16;;;;;;;4.77;3.80;;;6.90;89.70;;;;;;5074879;28;20179;-86
2021/10/07 02:47:42;;;;;;;3.87;3.37;;;6.90;89.60;;;;;;5076070;28;20546;-86
2021/10/07 02:50:10;;;;;;;5.03;3.33;;;6.90;89.40;;;;;;5074719;28;20191;-86
2021/10/07 02:52:36;;;;;;;5.63;3.73;;;6.90;89.10;;;;;;5074615;28;20293;-86
2021/10/07 02:55:02;;;;;;;4.50;3.40;;;6.90;88.90;;;;;;5075781;28;20233;-86
2021/10/07 02:57:28;;;;;;;4.23;3.60;;;6.90;88.60;;;;;;5074556;28;20180;-86
2021/10/07 02:59:54;;;;;;;4.00;3.30;;;6.80;88.40;;;;;;5074470;28;20272;-86
2021/10/07 03:02:19;;;;;;;4.03;3.17;;;6.80;88.20;;;;;;5075816;28;20171;-86
2021/10/07 03:04:45;;;;;;;5.63;4.10;;;6.80;88.10;;;;;;5075079;28;20183;-86
2021/10/07 03:07:12;;;;;;;3.40;3.10;;;6.80;87.90;;;;;;5076120;28;20613;-86
2021/10/07 03:09:39;;;;;;;3.50;3.20;;;6.80;87.70;;;;;;5074633;28;20202;-86
2021/10/07 03:12:05;;;;;;;3.40;3.10;;;6.80;87.60;;;;;;5074443;28;20187;-86
2021/10/07 03:14:32;;;;;;;5.10;4.27;;;6.80;87.50;;;;;;5074402;28;20199;-86
2021/10/07 03:16:57;;;;;;;3.17;2.87;;;6.80;87.30;;;;;;5074478;28;20210;-86
2021/10/07 03:19:23;;;;;;;3.30;3.00;;;6.80;87.20;;;;;;5075565;28;20566;-86
2021/10/07 03:21:49;;;;;;;5.57;3.47;;;6.80;87.10;;;;;;5074132;28;20175;-86
2021/10/07 03:24:14;;;;;;;4.27;3.87;;;6.70;87.10;;;;;;5074212;28;20183;-86
2021/10/07 03:26:40;;;;;;;3.97;3.20;;;6.70;87.20;;;;;;5074311;28;20183;-86
2021/10/07 03:29:06;;;;;;;3.83;3.17;;;6.70;87.00;;;;;;5075289;28;20195;-86
2021/10/07 03:31:31;;;;;;;4.17;3.57;;;6.70;86.90;;;;;;5075549;28;20174;-86
2021/10/07 03:33:57;;;;;;;4.00;3.60;;;6.60;86.90;;;;;;5074055;28;20191;-86
2021/10/07 03:36:22;;;;;;;4.57;3.27;;;6.60;86.80;;;;;;5074246;28;20305;-86
2021/10/07 03:38:48;;;;;;;4.13;3.10;;;6.60;86.70;;;;;;5075136;28;20187;-86
2021/10/07 03:41:14;;;;;;;3.37;3.07;;;6.50;86.60;;;;;;5075048;28;20669;-86
2021/10/07 03:43:39;;;;;;;6.70;3.23;;;6.50;86.70;;;;;;5075063;28;20256;-86
2021/10/07 03:46:05;;;;;;;6.80;3.40;;;6.40;87.30;;;;;;5074954;28;20596;-86
2021/10/07 03:48:31;;;;;;;9.80;3.93;;;6.40;87.20;;;;;;5073616;28;20225;-86
2021/10/07 03:50:56;;;;;;;5.07;3.83;;;6.40;87.00;;;;;;5073737;28;20653;-86
2021/10/07 03:53:23;;;;;;;5.97;3.70;;;6.40;86.90;;;;;;5074840;28;20179;-86
2021/10/07 03:55:48;;;;;;;5.27;4.20;;;6.40;86.80;;;;;;5074840;28;20252;-86
2021/10/07 03:58:14;;;;;;;4.30;3.90;;;6.40;86.80;;;;;;5074551;28;20553;-86
2021/10/07 04:00:40;;;;;;;5.20;3.87;;;6.30;87.00;;;;;;5073565;28;20171;-86
2021/10/07 04:03:05;;;;;;;5.20;4.00;;;6.30;87.00;;;;;;5074991;28;20179;-86
2021/10/07 04:05:31;;;;;;;5.23;4.13;;;6.30;87.10;;;;;;5073203;28;20313;-86
2021/10/07 04:07:57;;;;;;;5.27;4.67;;;6.30;87.10;;;;;;5074837;28;20183;-86
2021/10/07 04:10:22;;;;;;;6.53;5.50;;;6.30;87.00;;;;;;5073446;28;20179;-86
2021/10/07 04:12:48;;;;;;;12.40;6.80;;;6.30;86.90;;;;;;5074617;28;20206;-86
2021/10/07 04:15:14;;;;;;;6.33;5.63;;;6.30;87.20;;;;;;5074473;28;20249;-86
2021/10/07 04:17:39;;;;;;;5.67;4.80;;;6.30;87.40;;;;;;5074398;28;20175;-86
2021/10/07 04:20:06;;;;;;;6.20;4.73;;;6.20;87.30;;;;;;5073435;28;20267;-86
2021/10/07 04:22:32;;;;;;;6.13;5.17;;;6.30;87.30;;;;;;5074615;28;20627;-86
2021/10/07 04:24:57;;;;;;;6.33;5.20;;;6.20;87.20;;;;;;5073423;28;20274;-86
2021/10/07 04:27:24;;;;;;;13.87;4.93;;;6.20;87.30;;;;;;5073278;28;20263;-86
2021/10/07 04:29:50;;;;;;;14.30;5.10;;;6.20;87.20;;;;;;5073088;28;20264;-86
2021/10/07 04:32:15;;;;;;;35.63;5.20;;;6.10;87.30;;;;;;5073329;28;20176;-86
2021/10/07 04:34:41;;;;;;;15.40;4.67;;;6.10;87.70;;;;;;5073137;28;20203;-86
2021/10/07 04:37:07;;;;;;;31.30;4.60;;;6.00;88.20;;;;;;5074370;28;20265;-86
2021/10/07 04:39:33;;;;;;;27.43;4.40;;;6.00;88.40;;;;;;5072797;28;20672;-86
2021/10/07 04:41:58;;;;;;;4.03;3.07;;;6.10;88.40;;;;;;5072669;28;20186;-86
2021/10/07 04:44:24;;;;;;;7.07;3.77;;;6.10;88.50;;;;;;5072720;28;20186;-86
2021/10/07 04:46:50;;;;;;;5.97;3.93;;;6.10;88.40;;;;;;5073991;28;20179;-86
2021/10/07 04:49:15;;;;;;;40.10;4.77;;;6.10;88.10;;;;;;5072655;28;20206;-85
2021/10/07 04:51:41;;;;;;;7.17;3.90;;;6.10;88.00;;;;;;5072726;28;20179;-85
2021/10/07 04:54:07;;;;;;;28.23;4.90;;;6.10;87.80;;;;;;5072694;28;20186;-86
2021/10/07 04:56:32;;;;;;;8.13;4.03;;;6.10;87.60;;;;;;5073399;28;20163;-86
2021/10/07 04:58:58;;;;;;;3.70;3.30;;;6.00;87.60;;;;;;5071508;28;20223;-86
2021/10/07 05:01:24;;;;;;;3.40;3.10;;;6.00;87.60;;;;;;5074330;28;20175;-86
2021/10/07 05:03:50;;;;;;;9.90;3.70;;;6.00;87.60;;;;;;5072474;28;20171;-86
2021/10/07 05:06:17;;;;;;;5.80;3.50;;;6.00;87.60;;;;;;5073035;28;20182;-86
2021/10/07 05:08:43;;;;;;;3.67;2.70;;;6.00;87.60;;;;;;5074002;28;20275;-86
2021/10/07 05:11:09;;;;;;;3.00;2.80;;;6.10;87.50;;;;;;5072943;28;20309;-86
2021/10/07 05:13:34;;;;;;;6.13;2.80;;;6.10;87.40;;;;;;5072581;28;20216;-86
2021/10/07 05:16:00;;;;;;;5.40;3.77;;;6.00;87.30;;;;;;5072370;28;20203;-86
2021/10/07 05:18:25;;;;;;;26.53;5.10;;;6.00;87.60;;;;;;5072451;28;20195;-86
2021/10/07 05:20:53;;;;;;;6.13;4.80;;;6.00;88.30;;;;;;5072831;28;20251;-86
2021/10/07 05:23:19;;;;;;;11.63;5.03;;;5.80;88.70;;;;;;5072398;28;20269;-86
2021/10/07 05:25:44;;;;;;;24.90;6.13;;;5.80;89.00;;;;;;5072167;28;20616;-86
2021/10/07 05:28:10;;;;;;;27.47;5.87;;;5.70;89.30;;;;;;5072685;28;20210;-86
2021/10/07 05:30:36;;;;;;;29.53;4.57;;;5.60;89.80;;;;;;5071944;28;20186;-86
2021/10/07 05:33:01;;;;;;;23.40;5.23;;;5.60;90.10;;;;;;5073186;28;20182;-86
2021/10/07 05:35:27;;;;;;;5.27;4.73;;;5.50;90.20;;;;;;5071790;28;20202;-86
2021/10/07 05:37:53;;;;;;;27.27;4.93;;;5.50;90.40;;;;;;5072025;28;20188;-86
2021/10/07 05:40:19;;;;;;;7.47;4.57;;;5.50;90.40;;;;;;5072087;28;20174;-86
2021/10/07 05:42:45;;;;;;;29.93;5.40;;;5.60;90.30;;;;;;5072091;28;20183;-86
2021/10/07 05:45:11;;;;;;;16.70;4.87;;;5.70;90.30;;;;;;5071759;28;20533;-86
2021/10/07 05:47:40;;;;;;;11.50;4.50;;;5.60;90.30;;;;;;5073551;28;20175;-86
2021/10/07 05:50:08;;;;;;;5.63;4.43;;;5.60;90.50;;;;;;5071776;28;20281;-86
2021/10/07 05:52:34;;;;;;;6.63;5.17;;;5.70;90.50;;;;;;5071842;28;20178;-86
2021/10/07 05:55:00;;;;;;;5.13;4.47;;;5.70;90.50;;;;;;5071906;28;20226;-86
2021/10/07 05:57:26;;;;;;;5.83;4.43;;;5.70;90.50;;;;;;5072077;28;20178;-86
2021/10/07 05:59:52;;;;;;;5.17;4.20;;;5.70;90.40;;;;;;5073558;28;20276;-86
2021/10/07 06:02:18;;;;;;;4.40;3.83;;;5.70;90.30;;;;;;5072038;28;20232;-86
2021/10/07 06:04:44;;;;;;;7.63;3.80;;;5.70;90.20;;;;;;5071734;28;20214;-86
2021/10/07 06:07:09;;;;;;;5.37;3.90;;;5.80;90.20;;;;;;5071669;28;20206;-86
2021/10/07 06:09:35;;;;;;;4.50;3.90;;;5.70;90.00;;;;;;5073769;28;20202;-86
2021/10/07 06:12:01;;;;;;;4.57;4.17;;;5.70;90.00;;;;;;5075610;28;20195;-86
2021/10/07 06:14:27;;;;;;;3.73;3.43;;;5.80;90.00;;;;;;5075891;28;20214;-86
2021/10/07 06:16:53;;;;;;;5.37;3.93;;;5.80;89.80;;;;;;5077035;28;20180;-86
2021/10/07 06:19:22;;;;;;;15.33;3.33;;;5.80;89.70;;;;;;5076854;28;20229;-85
2021/10/07 06:21:48;;;;;;;7.50;4.00;;;5.90;89.90;;;;;;5076200;28;20639;-85
2021/10/07 06:24:14;;;;;;;3.60;3.30;;;5.90;90.30;;;;;;5078031;28;20171;-85
2021/10/07 06:26:40;;;;;;;5.27;4.07;;;5.90;90.20;;;;;;5076354;28;20181;-85
2021/10/07 06:29:06;;;;;;;13.90;3.70;;;5.90;90.30;;;;;;5077136;28;20333;-86
2021/10/07 06:31:32;;;;;;;15.37;3.10;;;6.00;90.40;;;;;;5075608;28;20207;-86
2021/10/07 06:33:58;;;;;;;26.37;3.43;;;6.00;90.70;;;;;;5075272;28;20185;-86
2021/10/07 06:36:24;;;;;;;15.90;2.60;;;6.00;91.20;;;;;;5076781;28;20551;-86
2021/10/07 06:38:49;;;;;;;24.90;3.30;;;6.00;91.50;;;;;;5075528;28;20195;-86
2021/10/07 06:41:17;;;;;;;16.40;2.93;;;6.00;91.80;;;;;;5075419;28;20186;-86
2021/10/07 06:43:43;;;;;;;8.33;3.07;;;6.10;92.00;;;;;;5075431;28;20277;-86
2021/10/07 06:46:09;;;;;;;5.67;3.20;;;6.20;92.20;;;;;;5076851;28;20646;-86
2021/10/07 06:48:35;;;;;;;3.23;2.67;;;6.20;92.30;;;;;;5076205;28;20278;-86
2021/10/07 06:51:02;;;;;;;6.87;3.90;;;6.30;92.50;;;;;;5075053;28;20278;-86
2021/10/07 06:53:28;;;;;;;19.57;5.47;;;6.30;92.70;;;;;;5075025;28;20718;-86
2021/10/07 06:55:54;;;;;;;9.90;4.90;;;6.40;92.80;;;;;;5074840;28;20203;-86
2021/10/07 06:58:19;;;;;;;10.67;5.57;;;6.50;92.90;;;;;;5076091;28;20293;-86
2021/10/07 07:00:45;;;;;;;11.50;6.20;;;6.50;92.90;;;;;;5074876;28;20190;-86
2021/10/07 07:03:11;;;;;;;27.43;7.10;;;6.70;93.10;;;;;;5074524;28;20183;-86
2021/10/07 07:05:37;;;;;;;15.53;8.60;;;6.70;93.20;;;;;;5074895;28;20644;-86
2021/10/07 07:08:03;;;;;;;21.80;8.80;;;6.80;93.20;;;;;;5074366;28;20278;-86
2021/10/07 07:10:29;;;;;;;23.30;10.50;;;6.90;93.30;;;;;;5074409;28;20191;-86
2021/10/07 07:12:54;;;;;;;30.10;11.60;;;7.00;93.40;;;;;;5074481;28;20179;-86
2021/10/07 07:15:21;;;;;;;23.10;10.33;;;7.00;93.40;;;;;;5075655;28;20203;-86
2021/10/07 07:17:47;;;;;;;23.07;11.50;;;7.10;93.40;;;;;;5074294;28;20188;-85
2021/10/07 07:20:14;;;;;;;28.87;11.47;;;7.20;93.50;;;;;;5073786;28;20643;-86
2021/10/07 07:22:40;;;;;;;31.50;12.03;;;7.30;93.50;;;;;;5075106;28;20643;-85
2021/10/07 07:25:08;;;;;;;32.03;12.70;;;7.30;93.60;;;;;;5074479;28;20209;-86
2021/10/07 07:27:34;;;;;;;29.77;13.00;;;7.40;93.60;;;;;;5075204;28;20179;-86
2021/10/07 07:30:02;;;;;;;42.43;14.50;;;7.40;93.60;;;;;;5073748;28;20223;-86
2021/10/07 07:32:29;;;;;;;33.30;14.60;;;7.50;93.70;;;;;;5073895;28;20185;-86
2021/10/07 07:34:54;;;;;;;35.70;14.60;;;7.50;93.80;;;;;;5073739;28;20202;-86
2021/10/07 07:37:20;;;;;;;37.50;14.73;;;7.80;93.90;;;;;;5073952;28;20228;-86
2021/10/07 07:39:46;;;;;;;28.87;13.77;;;7.90;94.00;;;;;;5073631;28;20195;-86
2021/10/07 07:42:11;;;;;;;28.87;12.70;;;8.10;94.10;;;;;;5073576;28;20214;-86
2021/10/07 07:44:37;;;;;;;35.07;14.10;;;8.20;94.10;;;;;;5074949;28;20182;-86
2021/10/07 07:47:03;;;;;;;25.17;12.93;;;8.30;94.20;;;;;;5073414;28;20668;-86
2021/10/07 07:49:29;;;;;;;25.17;13.57;;;8.40;94.20;;;;;;5074604;28;20223;-86
2021/10/07 07:51:54;;;;;;;34.07;14.33;;;8.60;94.30;;;;;;5074568;28;20194;-86
2021/10/07 07:54:20;;;;;;;28.00;14.00;;;8.80;94.40;;;;;;5074518;28;20195;-86
2021/10/07 07:56:46;;;;;;;33.13;14.73;;;9.00;94.40;;;;;;5074529;28;20174;-87
2021/10/07 07:59:11;;;;;;;24.80;14.90;;;9.20;94.50;;;;;;5074439;28;20207;-86
2021/10/07 08:01:37;;;;;;;23.70;13.83;;;9.20;94.40;;;;;;5073070;28;20222;-86
2021/10/07 08:04:06;;;;;;;23.13;13.90;;;9.30;94.40;;;;;;5074334;28;20179;-87
2021/10/07 08:06:35;;;;;;;18.83;12.83;;;9.50;94.40;;;;;;5073028;28;20601;-87
2021/10/07 08:09:01;;;;;;;17.17;12.67;;;9.50;94.40;;;;;;5073024;28;20671;-86
2021/10/07 08:11:27;;;;;;;20.77;13.53;;;9.60;94.40;;;;;;5074375;28;20657;-86
2021/10/07 08:13:53;;;;;;;21.47;13.00;;;9.80;94.40;;;;;;5072903;28;20179;-86
2021/10/07 08:16:18;;;;;;;19.23;11.90;;;9.90;94.40;;;;;;5074014;28;20190;-86
2021/10/07 08:18:45;;;;;;;21.07;12.40;;;9.80;94.20;;;;;;5074026;28;20191;-86
2021/10/07 08:21:11;;;;;;;17.07;11.50;;;9.90;94.20;;;;;;5072727;28;20178;-86
2021/10/07 08:23:37;;;;;;;18.43;11.77;;;10.10;94.30;;;;;;5074365;28;20163;-86
2021/10/07 08:26:03;;;;;;;17.10;11.37;;;10.20;94.10;;;;;;5072675;28;20171;-86
2021/10/07 08:28:29;;;;;;;16.63;11.10;;;10.30;94.00;;;;;;5072557;28;20202;-86
2021/10/07 08:30:55;;;;;;;13.83;10.10;;;10.40;93.90;;;;;;5072631;28;20175;-86
2021/10/07 08:33:20;;;;;;;14.20;10.30;;;10.50;93.70;;;;;;5072402;28;20179;-86
2021/10/07 08:35:49;;;;;;;20.40;11.00;;;10.60;93.70;;;;;;5072505;28;20333;-86
2021/10/07 08:38:16;;;;;;;13.57;10.63;;;10.70;93.60;;;;;;5073906;28;20655;-86
2021/10/07 08:40:41;;;;;;;12.80;9.70;;;10.70;93.40;;;;;;5072407;28;20201;-86
2021/10/07 08:43:07;;;;;;;10.67;9.40;;;10.80;93.40;;;;;;5072412;28;20175;-86
2021/10/07 08:45:33;;;;;;;13.30;9.80;;;11.00;93.40;;;;;;5072307;28;20221;-86
2021/10/07 08:47:58;;;;;;;12.90;9.43;;;11.00;93.30;;;;;;5073502;28;20187;-86
2021/10/07 08:50:24;;;;;;;13.37;9.23;;;11.20;93.20;;;;;;5072312;28;20647;-87
2021/10/07 08:52:50;;;;;;;14.80;8.30;;;11.20;93.00;;;;;;5073482;28;20171;-86
2021/10/07 08:55:17;;;;;;;13.67;8.90;;;11.40;92.90;;;;;;5072165;28;20662;-86
2021/10/07 08:57:43;;;;;;;10.43;8.00;;;11.50;92.60;;;;;;5072276;28;20174;-86
2021/10/07 09:00:12;;;;;;;13.03;8.07;;;11.60;92.60;;;;;;5072088;28;20198;-86
2021/10/07 09:02:38;;;;;;;12.60;8.20;;;11.70;92.40;;;;;;5073342;28;20203;-86
2021/10/07 09:05:07;;;;;;;13.93;8.10;;;11.80;92.20;;;;;;5072110;28;20220;-86
2021/10/07 09:07:33;;;;;;;17.43;8.47;;;12.00;92.20;;;;;;5073332;28;20172;-86
2021/10/07 09:09:59;;;;;;;12.90;7.67;;;12.10;91.70;;;;;;5073092;28;20329;-86
2021/10/07 09:12:25;;;;;;;12.10;7.43;;;12.20;91.60;;;;;;5071969;28;20540;-86
2021/10/07 09:14:51;;;;;;;12.33;7.23;;;12.30;90.90;;;;;;5073622;28;20634;-86
2021/10/07 09:17:25;;;;;;;13.03;6.93;;;12.40;90.40;;;;;;5074720;28;20160;-86
2021/10/07 09:19:51;;;;;;;12.83;7.80;;;12.60;90.40;;;;;;5073680;28;20205;-86
2021/10/07 09:22:25;;;;;;;12.53;6.93;;;12.80;89.80;;;;;;5072897;28;20647;-86
2021/10/07 09:24:52;;;;;;;11.93;6.90;;;12.90;88.60;;;;;;5073264;28;20171;-86
2021/10/07 09:27:19;;;;;;;10.20;6.73;;;13.00;88.80;;;;;;5072988;28;20206;-86
2021/10/07 09:29:50;;;;;;;7.37;5.60;;;13.10;88.80;;;;;;5072085;28;20192;-86
2021/10/07 09:32:26;;;;;;;7.43;5.67;;;13.20;87.40;;;;;;5074109;28;20171;-85
2021/10/07 09:34:52;;;;;;;10.07;5.03;;;13.30;87.20;;;;;;5072159;28;20198;-86
2021/10/07 09:37:23;;;;;;;12.77;5.00;;;13.50;87.80;;;;;;5073409;28;20194;-85
2021/10/07 09:39:57;;;;;;;11.93;4.03;;;13.50;86.70;;;;;;5073158;28;20191;-86
2021/10/07 09:42:27;;;;;;;8.40;3.57;;;13.60;86.20;;;;;;5071905;28;20560;-86
2021/10/07 09:45:06;;;;;;;5.07;3.53;;;13.80;86.70;;;;;;5075615;28;20703;-86
2021/10/07 09:47:35;;;;;;;7.57;3.53;;;13.90;84.90;;;;;;5075807;28;20695;-86
2021/10/07 09:50:31;;;;;;;6.20;2.80;;;14.00;84.20;;;;;;5077135;28;20543;-86
2021/10/07 09:53:00;;;;;;;6.93;3.10;;;14.10;84.00;;;;;;5076131;28;20174;-86
2021/10/07 09:55:35;;;;;;;8.87;3.10;;;14.20;82.10;;;;;;5075665;28;20234;-86
2021/10/07 09:58:10;;;;;;;7.00;3.20;;;14.30;83.00;;;;;;5076269;28;20194;-86
2021/10/07 10:00:38;;;;;;;6.10;3.00;;;14.30;83.00;;;;;;5075402;28;20623;-86
2021/10/07 10:03:09;;;;;;;5.27;2.50;;;14.50;82.80;;;;;;5075378;28;20639;-86
2021/10/07 10:05:37;;;;;;;5.33;2.97;;;14.60;82.60;;;;;;5077162;28;20171;-87
2021/10/07 10:08:10;;;;;;;4.67;2.83;;;14.70;82.60;;;;;;5076461;28;20589;-87
2021/10/07 10:10:37;;;;;;;4.27;2.43;;;14.70;79.90;;;;;;5076558;28;20164;-87
2021/10/07 10:13:04;;;;;;;5.30;2.73;;;14.70;80.30;;;;;;5075199;28;20179;-86
2021/10/07 10:15:30;;;;;;;4.03;2.30;;;14.90;80.50;;;;;;5075211;28;20607;-86
2021/10/07 10:17:56;;;;;;;4.30;2.83;;;14.90;78.90;;;;;;5074992;28;20210;-86
2021/10/07 10:20:25;;;;;;;6.30;3.05;;;14.90;79.10;;;;;;5075117;28;20179;-87
2021/10/07 10:23:19;;;;;;;5.73;2.50;;;15.00;78.60;;;;;;5076153;28;20663;-87
2021/10/07 10:26:04;;;;;;;4.67;3.10;;;15.10;76.50;;;;;;5075844;28;20691;-86
2021/10/07 10:28:44;;;;;;;4.90;3.23;;;15.00;77.10;;;;;;5075104;28;20195;-86
2021/10/07 10:31:13;;;;;;;4.50;3.13;;;15.00;75.40;;;;;;5076217;28;20250;-86
2021/10/07 10:33:45;;;;;;;7.17;3.80;;;15.00;76.30;;;;;;5076273;28;20179;-86
2021/10/07 10:36:34;;;;;;;5.53;3.70;;;15.20;78.10;;;;;;5074807;28;20203;-86
2021/10/07 10:39:04;;;;;;;7.37;3.97;;;15.30;76.60;;;;;;5075892;28;20221;-87
2021/10/07 10:41:51;;;;;;;5.13;4.07;;;15.30;76.70;;;;;;5074630;28;20198;-87
2021/10/07 10:44:40;;;;;;;4.50;4.00;;;15.40;76.80;;;;;;5075994;28;20636;-87
2021/10/07 10:47:06;;;;;;;4.97;4.03;;;15.60;75.40;;;;;;5074657;28;20171;-87
2021/10/07 10:49:42;;;;;;;4.80;3.88;;;15.70;76.30;;;;;;5074642;28;20274;-90
2021/10/07 10:52:14;;;;;;;4.35;3.33;;;15.70;74.00;;;;;;5076265;28;20189;-90
2021/10/07 10:54:45;;;;;;;2.92;2.72;;;15.80;74.40;;;;;;5074424;28;20682;-89
2021/10/07 10:57:26;;;;;;;7.07;3.40;;;15.90;72.70;;;;;;5073532;28;20179;-90
2021/10/07 11:00:15;;;;;;;6.43;2.83;;;15.80;72.90;;;;;;5074898;28;20222;-90
2021/10/07 11:02:46;;;;;;;7.40;3.15;;;16.00;73.90;;;;;;5074535;28;20164;-90
2021/10/07 11:05:29;;;;;;;3.30;3.00;;;16.30;73.70;;;;;;5075668;28;20170;-90
2021/10/07 11:08:19;;;;;;;2.72;2.45;;;16.40;71.70;;;;;;5075228;28;20606;-90
2021/10/07 11:10:47;;;;;;;2.63;2.38;;;16.40;71.90;;;;;;5074599;28;20171;-90
2021/10/07 11:13:21;;;;;;;3.28;2.80;;;16.20;71.60;;;;;;5074418;28;20240;-90
2021/10/07 11:15:49;;;;;;;5.50;2.65;;;16.30;72.00;;;;;;5074250;28;20263;-90
2021/10/07 11:18:15;;;;;;;7.03;2.45;;;16.50;72.50;;;;;;5075339;28;20255;-90
2021/10/07 11:20:41;;;;;;;2.22;1.90;;;16.60;72.30;;;;;;5075380;28;20167;-90
2021/10/07 11:23:13;;;;;;;2.50;2.22;;;16.70;70.90;;;;;;5074196;28;20266;-90
2021/10/07 11:25:43;;;;;;;2.97;2.35;;;16.60;71.00;;;;;;5074027;28;20695;-90
2021/10/07 11:28:09;;;;;;;2.65;2.30;;;16.70;68.70;;;;;;5075343;28;20563;-90
2021/10/07 11:30:38;;;;;;;2.75;2.30;;;16.60;69.20;;;;;;5075364;28;20647;-89
2021/10/07 11:33:04;;;;;;;2.70;2.17;;;16.70;69.20;;;;;;5074287;28;20602;-89
2021/10/07 11:35:31;;;;;;;2.58;2.25;;;16.80;68.00;;;;;;5073853;28;20198;-89
2021/10/07 11:37:59;;;;;;;2.60;2.00;;;16.80;68.40;;;;;;5073673;28;20167;-89
2021/10/07 11:40:32;;;;;;;2.20;2.03;;;17.00;69.30;;;;;;5074014;28;20313;-89
2021/10/07 11:43:03;;;;;;;2.38;2.17;;;17.00;68.90;;;;;;5074976;28;20640;-89
2021/10/07 11:45:35;;;;;;;4.07;2.40;;;17.30;68.00;;;;;;5073646;28;20171;-89
2021/10/07 11:48:07;;;;;;;2.53;2.33;;;17.50;68.10;;;;;;5073620;28;20276;-89
2021/10/07 11:50:35;;;;;;;2.67;2.42;;;17.30;67.20;;;;;;5073588;28;20174;-89
2021/10/07 11:53:01;;;;;;;2.40;2.20;;;17.10;68.30;;;;;;5073713;28;20178;-89
2021/10/07 11:55:26;;;;;;;7.40;2.80;;;17.10;68.20;;;;;;5073361;28;20199;-89
2021/10/07 11:57:52;;;;;;;8.90;2.75;;;17.20;68.50;;;;;;5073437;28;20171;-89
2021/10/07 12:00:42;;;;;;;3.35;2.40;;;17.20;68.10;;;;;;5074509;28;20191;-89
2021/10/07 12:03:17;;;;;;;3.90;2.35;;;17.30;67.40;;;;;;5073330;28;20159;-89
2021/10/07 12:05:46;;;;;;;4.25;2.50;;;17.40;66.10;;;;;;5074472;28;20181;-89
2021/10/07 12:08:15;;;;;;;2.28;1.63;;;17.60;67.00;;;;;;5072993;28;20618;-89
2021/10/07 12:11:04;;;;;;;3.47;2.35;;;17.50;67.10;;;;;;5073159;28;20698;-89
2021/10/07 12:13:32;;;;;;;2.15;1.92;;;17.30;67.30;;;;;;5074252;28;20187;-89
2021/10/07 12:16:10;;;;;;;3.03;2.72;;;17.40;66.00;;;;;;5073422;28;20199;-89
2021/10/07 12:18:37;;;;;;;2.78;2.30;;;17.30;67.10;;;;;;5074605;28;20191;-89
2021/10/07 12:21:10;;;;;;;3.40;2.47;;;17.70;66.70;;;;;;5074199;28;20163;-89
2021/10/07 12:24:00;;;;;;;4.93;2.53;;;17.60;66.50;;;;;;5072980;28;20187;-89
2021/10/07 12:26:51;;;;;;;3.40;2.50;;;17.70;66.80;;;;;;5072865;28;20202;-90
2021/10/07 12:29:19;;;;;;;3.67;2.10;;;17.80;64.70;;;;;;5073967;28;20667;-89
2021/10/07 12:31:53;;;;;;;3.67;1.70;;;17.80;65.10;;;;;;5072668;28;20228;-89
2021/10/07 12:34:19;;;;;;;1.95;1.83;;;17.60;66.00;;;;;;5072889;28;20179;-89
2021/10/07 12:36:49;;;;;;;2.60;1.63;;;17.60;66.10;;;;;;5072723;28;20171;-91
2021/10/07 12:39:36;;;;;;;2.53;1.42;;;17.50;66.00;;;;;;5072620;28;20195;-92
2021/10/07 12:42:13;;;;;;;4.65;1.65;;;17.50;65.80;;;;;;5072718;28;20691;-91
2021/10/07 12:44:45;;;;;;;5.07;1.60;;;17.60;65.30;;;;;;5073493;28;20313;-92
2021/10/07 12:47:16;;;;;;;2.88;1.52;;;17.50;65.60;;;;;;5073763;28;20243;-92
2021/10/07 12:49:44;;;;;;;2.10;1.63;;;17.50;66.20;;;;;;5072600;28;20195;-92
2021/10/07 12:52:17;;;;;;;3.35;1.70;;;17.50;66.60;;;;;;5072826;28;20175;-91
2021/10/07 12:54:56;;;;;;;5.90;1.92;;;17.20;66.00;;;;;;5072503;28;20213;-89
2021/10/07 12:57:34;;;;;;;2.88;1.80;;;17.00;66.40;;;;;;5072652;28;20175;-91